CDT,Max TemperatureF,Mean TemperatureF,Min TemperatureF,Max Dew PointF,MeanDew PointF,Min DewpointF,Max Humidity, Mean Humidity, Min Humidity, Max Sea Level PressureIn, Mean Sea Level PressureIn, Min Sea Level PressureIn, Max VisibilityMiles, Mean VisibilityMiles, Min VisibilityMiles, Max Wind SpeedMPH, Mean Wind SpeedMPH, Max Gust SpeedMPH,PrecipitationIn, CloudCover, Events, WindDirDegrees
2013-3-1,25,15,5,15,8,2,88,75,62,30.46,30.41,30.31,10,8,0,9,3,12,0.00,2,Fog,301
2013-3-2,25,14,2,14,6,-4,87,69,50,30.41,30.27,30.11,10,8,0,21,10,26,0.00,5,,160
2013-3-3,32,23,13,21,14,8,84,69,53,30.11,29.97,29.87,10,10,8,22,12,30,T,5,,138
2013-3-4,29,27,25,22,21,16,88,69,50,30.02,29.87,29.81,10,3,0,23,15,33,0.31,8,Snow,129
2013-3-5,25,23,20,21,18,14,88,81,74,30.45,30.24,29.98,10,6,1,25,16,29,0.16,8,Snow,355
2013-3-6,24,16,8,15,12,8,84,75,65,30.49,30.43,30.32,10,8,2,12,5,14,0.01,6,Snow,30
2013-3-7,30,18,6,18,13,5,92,75,58,30.38,30.27,30.19,10,9,4,29,14,37,0.00,3,Snow,148
2013-3-8,33,28,22,25,21,17,84,78,72,30.28,30.22,30.08,10,6,4,17,7,22,T,7,Snow,141
2013-3-9,30,28,25,27,24,19,92,84,75,30.05,29.91,29.79,10,4,1,30,14,36,0.09,8,Rain-Snow,3
2013-3-10,25,14,3,18,13,-2,83,75,66,30.23,30.15,30.01,10,9,2,30,18,35,T,6,Snow,345
2013-3-11,23,12,1,16,7,-4,84,73,61,30.14,29.95,29.82,10,9,2,10,3,12,0.02,6,Snow,341
2013-3-12,25,16,7,16,13,4,84,76,68,30.37,30.08,29.86,10,6,2,25,14,30,0.05,6,Snow,330
2013-3-13,27,11,-5,19,6,-9,86,74,61,30.44,30.31,30.07,10,9,1,21,7,26,0.03,4,Snow,161
2013-3-14,35,25,14,26,21,14,85,79,72,30.14,30.11,30.06,10,9,2,17,9,23,0.00,2,,204
2013-3-15,24,15,6,18,14,6,84,79,74,30.14,30.04,29.93,10,3,0,23,17,30,0.34,8,Snow,10
2013-3-16,9,2,-6,1,-4,-11,82,71,59,30.39,30.27,30.11,10,8,2,20,9,23,0.00,3,,336
2013-3-17,26,6,-15,20,6,-18,84,73,62,30.37,29.94,29.62,10,6,0,31,15,40,0.23,7,Snow,135
2013-3-18,32,18,4,28,14,-2,85,76,66,30.04,29.64,29.42,10,3,0,36,24,45,0.14,7,Fog-Rain-Snow,287
2013-3-19,16,6,-4,1,-4,-12,75,63,51,30.39,30.24,30.04,10,10,10,21,13,24,0.00,1,,305
2013-3-20,17,7,-4,4,-2,-10,79,67,54,30.42,30.35,30.26,10,10,10,16,10,20,0.00,0,,313
2013-3-21,17,4,-9,8,-2,-15,86,74,61,30.24,30.20,30.16,10,10,10,8,4,10,0.00,0,,343
2013-3-22,19,7,-6,10,2,-10,91,79,67,30.21,30.17,30.09,10,9,4,8,4,8,0.00,0,,335
2013-3-23,27,15,3,18,10,0,86,77,67,30.25,30.23,30.20,10,10,8,10,4,12,0.00,3,,321
2013-3-24,30,21,11,23,16,7,84,76,68,30.25,30.21,30.19,10,10,4,21,13,25,T,7,Snow,346
2013-3-25,27,19,10,19,16,7,84,76,68,30.40,30.34,30.22,10,10,7,22,14,24,T,5,Snow,337
2013-3-26,26,14,1,14,7,-2,88,73,57,30.42,30.38,30.35,10,9,2,8,3,9,0.00,0,,353
2013-3-27,36,19,1,21,9,-4,95,76,56,30.39,30.34,30.29,10,8,0,17,5,24,0.00,1,Fog,114
2013-3-28,38,32,25,28,23,17,85,75,64,30.32,30.28,30.24,10,9,4,20,9,25,0.00,3,,148
2013-3-29,42,28,13,32,23,10,92,84,76,30.27,30.15,29.98,5,2,0,14,4,15,T,6,Fog-Rain,7
2013-3-30,40,35,29,31,30,27,92,81,70,29.99,29.96,29.91,8,4,0,13,7,16,0.06,3,Fog-Rain,311
2013-3-31,36,27,17,30,19,11,82,70,57,30.27,30.06,29.85,10,9,3,30,18,36,T,6,Snow,333